Time;durP1;ratioP1;P1;durP2;ratioP2;P2;SDS_P1;SDS_P2;PMS_P1;PMS_P2;Temp;Humidity;BMP_temperature;BMP_pressure;BME280_temperature;BME280_humidity;BME280_pressure;Samples;Min_cycle;Max_cycle;Signal;HPM_P1;HPM_P2
2022/03/11 00:02:09;;;;;;;25.20;11.60;;;-6.60;70.00;;;;;;5052766;28;20478;-72
2022/03/11 00:04:34;;;;;;;28.30;11.40;;;-6.60;70.00;;;;;;5052716;28;20026;-69
2022/03/11 00:07:00;;;;;;;20.67;12.33;;;-6.60;70.10;;;;;;5052524;28;20057;-72
2022/03/11 00:09:25;;;;;;;17.47;10.13;;;-6.60;70.10;;;;;;5054820;28;20179;-73
2022/03/11 00:11:51;;;;;;;20.93;10.60;;;-6.60;69.80;;;;;;5056345;28;20029;-72
2022/03/11 00:14:16;;;;;;;27.83;10.90;;;-6.60;69.50;;;;;;5056440;28;20029;-72
2022/03/11 00:16:42;;;;;;;23.63;11.93;;;-6.60;69.40;;;;;;5056307;28;20080;-69
2022/03/11 00:19:08;;;;;;;24.27;11.97;;;-6.70;69.90;;;;;;5056223;28;20479;-70
2022/03/11 00:21:33;;;;;;;27.10;12.07;;;-6.70;69.10;;;;;;5056260;28;20123;-69
2022/03/11 00:23:59;;;;;;;25.03;10.43;;;-6.70;69.00;;;;;;5056056;28;20120;-72
2022/03/11 00:26:24;;;;;;;22.40;11.83;;;-6.70;69.10;;;;;;5055877;28;20021;-68
2022/03/11 00:28:51;;;;;;;21.53;11.13;;;-6.80;69.10;;;;;;5056011;28;20025;-73
2022/03/11 00:31:16;;;;;;;25.37;11.17;;;-6.80;69.10;;;;;;5056068;28;20033;-72
2022/03/11 00:33:43;;;;;;;22.97;11.23;;;-6.80;69.30;;;;;;5056164;28;20368;-72
2022/03/11 00:36:09;;;;;;;24.23;12.43;;;-6.80;69.40;;;;;;5055940;28;20143;-69
2022/03/11 00:38:35;;;;;;;21.63;11.63;;;-6.80;69.50;;;;;;5056028;28;20422;-69
2022/03/11 00:41:01;;;;;;;24.40;10.57;;;-6.80;69.30;;;;;;5055697;28;20039;-72
2022/03/11 00:43:27;;;;;;;23.37;12.90;;;-6.70;69.20;;;;;;5054646;28;20071;-70
2022/03/11 00:45:53;;;;;;;23.47;12.00;;;-6.70;69.80;;;;;;5054574;28;20063;-69
2022/03/11 00:48:20;;;;;;;21.97;12.27;;;-6.70;68.80;;;;;;5055652;28;20021;-72
2022/03/11 00:50:45;;;;;;;24.50;12.30;;;-6.70;68.70;;;;;;5055700;28;20021;-70
2022/03/11 00:53:11;;;;;;;28.47;12.30;;;-6.70;68.50;;;;;;5054392;28;20383;-69
2022/03/11 00:55:36;;;;;;;24.27;12.90;;;-6.70;68.40;;;;;;5055685;28;20029;-69
2022/03/11 00:58:02;;;;;;;23.57;13.57;;;-6.70;68.30;;;;;;5055539;28;20502;-69
2022/03/11 01:00:28;;;;;;;22.80;13.17;;;-6.70;68.20;;;;;;5054150;28;20421;-70
2022/03/11 01:02:53;;;;;;;25.17;12.60;;;-6.80;68.00;;;;;;5055533;28;20111;-69
2022/03/11 01:05:22;;;;;;;31.00;12.93;;;-6.80;67.90;;;;;;5054242;28;20048;-72
2022/03/11 01:07:48;;;;;;;22.80;13.17;;;-6.80;67.90;;;;;;5055461;28;20074;-72
2022/03/11 01:10:14;;;;;;;28.20;12.23;;;-6.90;68.10;;;;;;5055385;28;20024;-69
2022/03/11 01:12:39;;;;;;;22.13;12.50;;;-6.90;68.20;;;;;;5055408;28;20021;-69
2022/03/11 01:15:07;;;;;;;23.13;12.03;;;-7.00;68.30;;;;;;5055218;28;20025;-69
2022/03/11 01:17:32;;;;;;;26.43;12.83;;;-7.00;68.40;;;;;;5054035;28;20021;-72
2022/03/11 01:19:58;;;;;;;25.63;11.97;;;-7.00;68.50;;;;;;5052943;28;20501;-69
2022/03/11 01:22:24;;;;;;;26.07;13.03;;;-7.00;68.60;;;;;;5054864;28;20056;-69
2022/03/11 01:24:50;;;;;;;27.87;13.80;;;-7.10;68.70;;;;;;5055020;28;20021;-69
2022/03/11 01:27:15;;;;;;;33.47;13.33;;;-7.10;68.70;;;;;;5054978;28;20028;-69
2022/03/11 01:29:41;;;;;;;27.67;13.27;;;-7.10;68.70;;;;;;5055150;28;20013;-69
2022/03/11 01:32:06;;;;;;;28.80;13.33;;;-7.10;68.80;;;;;;5053614;28;20021;-69
2022/03/11 01:34:32;;;;;;;21.03;13.27;;;-7.20;68.80;;;;;;5054854;28;20017;-72
2022/03/11 01:36:58;;;;;;;24.70;13.40;;;-7.20;69.10;;;;;;5053526;28;20544;-72
2022/03/11 01:39:23;;;;;;;24.87;11.77;;;-7.30;69.20;;;;;;5053725;28;20029;-72
2022/03/11 01:41:49;;;;;;;30.20;11.57;;;-7.30;69.20;;;;;;5054649;28;20033;-72
2022/03/11 01:44:14;;;;;;;23.80;12.53;;;-7.40;69.30;;;;;;5054601;28;20033;-70
2022/03/11 01:46:40;;;;;;;27.53;13.43;;;-7.40;69.60;;;;;;5054658;28;20501;-69
2022/03/11 01:49:07;;;;;;;31.90;14.47;;;-7.40;69.70;;;;;;5054475;28;20091;-72
2022/03/11 01:51:37;;;;;;;26.80;12.43;;;-7.40;69.70;;;;;;5054580;28;20021;-72
2022/03/11 01:54:02;;;;;;;31.23;13.13;;;-7.50;70.00;;;;;;5054507;28;20036;-69
2022/03/11 01:56:29;;;;;;;28.33;13.67;;;-7.50;70.10;;;;;;5054523;28;20471;-72
2022/03/11 01:58:55;;;;;;;31.83;16.40;;;-7.50;70.30;;;;;;5053268;28;20021;-69
2022/03/11 02:01:23;;;;;;;25.63;12.10;;;-7.50;70.60;;;;;;5054265;28;20039;-69
2022/03/11 02:03:49;;;;;;;32.57;12.67;;;-7.50;70.60;;;;;;5054149;28;20569;-72
2022/03/11 02:06:15;;;;;;;29.90;10.83;;;-7.50;70.70;;;;;;5054318;28;20490;-69
2022/03/11 02:08:42;;;;;;;23.83;11.93;;;-7.50;70.80;;;;;;5054415;28;20471;-72
2022/03/11 02:11:08;;;;;;;26.80;12.47;;;-7.40;70.70;;;;;;5054193;28;20036;-72
2022/03/11 02:13:51;;;;;;;22.07;10.73;;;-7.40;70.60;;;;;;5054154;28;20071;-72
2022/03/11 02:16:19;;;;;;;22.83;10.73;;;-7.40;70.40;;;;;;5052780;28;20024;-69
2022/03/11 02:18:45;;;;;;;22.27;11.57;;;-7.30;70.40;;;;;;5054029;28;20103;-69
2022/03/11 02:21:12;;;;;;;25.37;11.47;;;-7.30;70.30;;;;;;5053795;28;20043;-68
2022/03/11 02:23:56;;;;;;;20.10;11.43;;;-7.30;70.10;;;;;;5052540;28;20073;-68
2022/03/11 02:26:24;;;;;;;23.17;10.33;;;-7.30;70.10;;;;;;5053880;28;20063;-69
2022/03/11 02:28:51;;;;;;;22.77;10.57;;;-7.30;70.10;;;;;;5053761;28;20020;-73
2022/03/11 02:31:18;;;;;;;22.33;10.47;;;-7.30;70.00;;;;;;5053652;28;20136;-72
2022/03/11 02:33:44;;;;;;;26.43;11.73;;;-7.30;70.10;;;;;;5053735;28;20060;-72
2022/03/11 02:36:10;;;;;;;22.40;11.63;;;-7.30;70.00;;;;;;5053742;28;20024;-72
2022/03/11 02:38:36;;;;;;;23.17;12.13;;;-7.30;70.00;;;;;;5053701;28;20368;-72
2022/03/11 02:41:02;;;;;;;23.07;11.60;;;-7.40;70.10;;;;;;5052210;28;20128;-72
2022/03/11 02:43:27;;;;;;;23.10;12.23;;;-7.40;70.10;;;;;;5052472;28;20063;-69
2022/03/11 02:45:53;;;;;;;17.33;10.43;;;-7.40;70.00;;;;;;5053561;28;20044;-72
2022/03/11 02:48:19;;;;;;;20.27;11.50;;;-7.30;70.00;;;;;;5053608;28;20087;-68
2022/03/11 02:50:44;;;;;;;20.67;11.47;;;-7.40;69.80;;;;;;5053382;28;20017;-69
2022/03/11 02:53:10;;;;;;;23.27;11.70;;;-7.40;70.00;;;;;;5053466;28;20053;-68
2022/03/11 02:55:36;;;;;;;25.53;11.73;;;-7.40;70.10;;;;;;5053477;28;20017;-72
2022/03/11 02:58:02;;;;;;;16.27;10.90;;;-7.40;70.30;;;;;;5053412;28;20056;-72
2022/03/11 03:00:27;;;;;;;19.60;11.37;;;-7.50;70.20;;;;;;5053408;28;20021;-72
2022/03/11 03:02:53;;;;;;;21.43;11.50;;;-7.50;70.20;;;;;;5053300;28;20025;-72
2022/03/11 03:05:18;;;;;;;30.47;12.13;;;-7.60;70.10;;;;;;5053388;28;20398;-70
2022/03/11 03:07:44;;;;;;;24.73;11.03;;;-7.60;70.30;;;;;;5053248;28;20371;-69
2022/03/11 03:10:12;;;;;;;18.80;11.37;;;-7.70;70.50;;;;;;5053192;28;20055;-69
2022/03/11 03:12:39;;;;;;;22.47;12.40;;;-7.70;70.60;;;;;;5053244;28;20029;-68
2022/03/11 03:15:07;;;;;;;25.07;11.63;;;-7.70;70.90;;;;;;5053144;28;20434;-72
2022/03/11 03:17:32;;;;;;;26.10;12.90;;;-7.80;71.20;;;;;;5053286;28;20104;-69
2022/03/11 03:19:58;;;;;;;25.50;11.87;;;-7.80;71.40;;;;;;5053015;28;20071;-73
2022/03/11 03:22:23;;;;;;;27.73;13.27;;;-7.90;71.80;;;;;;5051717;28;20045;-72
2022/03/11 03:24:49;;;;;;;23.57;11.40;;;-7.90;72.40;;;;;;5051791;28;20018;-68
2022/03/11 03:27:15;;;;;;;26.57;12.63;;;-7.90;72.90;;;;;;5051847;28;20047;-71
2022/03/11 03:29:41;;;;;;;25.80;12.00;;;-7.90;73.20;;;;;;5053185;28;20506;-72
2022/03/11 03:32:07;;;;;;;29.57;11.77;;;-7.90;73.30;;;;;;5053078;28;20501;-69
2022/03/11 03:34:34;;;;;;;23.70;10.87;;;-7.90;73.40;;;;;;5051738;28;20027;-72
2022/03/11 03:37:03;;;;;;;24.93;11.83;;;-8.00;73.30;;;;;;5053040;28;20036;-72
2022/03/11 03:39:29;;;;;;;27.17;11.80;;;-7.90;73.30;;;;;;5053043;28;20020;-69
2022/03/11 03:41:56;;;;;;;19.53;10.87;;;-8.00;73.20;;;;;;5051341;28;20025;-72
2022/03/11 03:44:22;;;;;;;19.07;11.23;;;-8.00;73.30;;;;;;5053746;28;20509;-73
2022/03/11 03:46:48;;;;;;;24.93;11.27;;;-8.00;73.40;;;;;;5056772;28;20104;-72
2022/03/11 03:49:14;;;;;;;22.47;11.80;;;-8.00;73.60;;;;;;5056985;28;20060;-72
2022/03/11 03:51:40;;;;;;;19.60;9.93;;;-8.00;73.60;;;;;;5056794;28;20025;-71
2022/03/11 03:54:06;;;;;;;20.33;11.17;;;-8.00;73.60;;;;;;5056623;28;20123;-70
2022/03/11 03:56:33;;;;;;;18.60;11.10;;;-7.90;73.50;;;;;;5056630;28;20017;-72
2022/03/11 03:59:04;;;;;;;20.77;11.43;;;-7.90;73.50;;;;;;5056692;28;20075;-69
2022/03/11 04:01:37;;;;;;;24.37;11.47;;;-7.90;73.40;;;;;;5056512;28;20482;-69
2022/03/11 04:04:04;;;;;;;24.00;10.90;;;-7.90;73.40;;;;;;5055517;28;20048;-68
2022/03/11 04:06:30;;;;;;;26.63;11.87;;;-7.90;73.50;;;;;;5056567;28;20017;-72
2022/03/11 04:08:57;;;;;;;24.10;11.53;;;-7.90;73.60;;;;;;5056508;28;20016;-72
2022/03/11 04:11:23;;;;;;;22.30;11.30;;;-7.90;73.70;;;;;;5056572;28;20051;-69
2022/03/11 04:13:50;;;;;;;26.87;10.77;;;-7.90;73.70;;;;;;5056488;28;20029;-72
2022/03/11 04:16:16;;;;;;;24.80;11.93;;;-7.90;73.70;;;;;;5056235;28;20143;-69
2022/03/11 04:18:42;;;;;;;24.57;12.00;;;-7.90;73.80;;;;;;5055126;28;20044;-69
2022/03/11 04:21:07;;;;;;;23.93;12.57;;;-7.90;73.90;;;;;;5056403;28;20037;-69
2022/03/11 04:23:33;;;;;;;25.70;12.63;;;-7.90;74.00;;;;;;5054964;28;20128;-72
2022/03/11 04:25:58;;;;;;;20.43;11.03;;;-7.90;74.20;;;;;;5056277;28;20021;-70
2022/03/11 04:28:24;;;;;;;25.40;11.63;;;-7.90;74.30;;;;;;5056211;28;20394;-69
2022/03/11 04:30:49;;;;;;;22.07;12.63;;;-8.00;74.40;;;;;;5056074;28;20439;-72
2022/03/11 04:33:15;;;;;;;19.73;12.03;;;-8.00;74.60;;;;;;5054875;28;20025;-68
2022/03/11 04:35:41;;;;;;;19.83;11.50;;;-8.00;74.70;;;;;;5056140;28;20087;-69
2022/03/11 04:38:06;;;;;;;21.37;12.93;;;-8.10;75.00;;;;;;5054669;28;20021;-69
2022/03/11 04:40:32;;;;;;;29.20;12.17;;;-8.10;75.40;;;;;;5055938;28;20029;-72
2022/03/11 04:42:58;;;;;;;20.93;11.47;;;-8.10;75.60;;;;;;5055576;28;20040;-68
2022/03/11 04:45:24;;;;;;;21.30;11.70;;;-8.10;75.70;;;;;;5055820;28;20021;-72
2022/03/11 04:47:49;;;;;;;29.13;11.67;;;-8.10;75.80;;;;;;5055696;28;20025;-71
2022/03/11 04:50:15;;;;;;;25.57;11.10;;;-8.10;76.00;;;;;;5054489;28;20028;-73
2022/03/11 04:52:41;;;;;;;24.13;12.80;;;-8.10;76.10;;;;;;5055773;28;20025;-72
2022/03/11 04:55:06;;;;;;;25.60;12.50;;;-8.10;76.10;;;;;;5054274;28;20382;-72
2022/03/11 04:57:32;;;;;;;25.47;12.73;;;-8.10;76.20;;;;;;5055576;28;20386;-68
2022/03/11 04:59:57;;;;;;;22.77;13.10;;;-8.10;76.20;;;;;;5055770;28;20032;-72
2022/03/11 05:02:24;;;;;;;30.67;13.63;;;-8.10;76.00;;;;;;5055569;28;20041;-73
2022/03/11 05:04:50;;;;;;;21.27;10.83;;;-8.10;75.90;;;;;;5055532;28;20025;-69
2022/03/11 05:07:16;;;;;;;21.63;11.30;;;-8.10;75.80;;;;;;5054142;28;20029;-71
2022/03/11 05:09:41;;;;;;;25.53;13.03;;;-8.10;76.60;;;;;;5055510;28;20364;-72
2022/03/11 05:12:07;;;;;;;26.53;13.07;;;-8.10;75.80;;;;;;5055247;28;20056;-72
2022/03/11 05:14:33;;;;;;;26.57;13.77;;;-8.10;75.70;;;;;;5055217;28;20020;-72
2022/03/11 05:16:58;;;;;;;27.70;13.40;;;-8.00;75.40;;;;;;5055117;28;20078;-68
2022/03/11 05:19:24;;;;;;;25.27;12.30;;;-8.00;75.10;;;;;;5052165;28;20813;-70
2022/03/11 05:21:51;;;;;;;23.50;12.77;;;-8.00;74.80;;;;;;5053604;28;20040;-69
2022/03/11 05:24:16;;;;;;;27.57;12.30;;;-8.00;74.60;;;;;;5054001;28;20053;-71
2022/03/11 05:26:42;;;;;;;28.07;11.57;;;-7.90;74.40;;;;;;5055144;28;20032;-74
2022/03/11 05:29:08;;;;;;;22.47;11.43;;;-7.90;74.30;;;;;;5054959;28;20029;-69
2022/03/11 05:31:33;;;;;;;24.37;12.20;;;-7.90;74.40;;;;;;5054863;28;20486;-69
2022/03/11 05:33:59;;;;;;;27.10;11.63;;;-7.90;74.50;;;;;;5054346;28;20497;-71
2022/03/11 05:36:25;;;;;;;23.67;10.83;;;-7.90;74.30;;;;;;5054905;28;20036;-72
2022/03/11 05:38:51;;;;;;;24.53;12.10;;;-7.80;74.10;;;;;;5054590;28;20021;-73
2022/03/11 05:41:17;;;;;;;21.53;12.13;;;-7.90;74.00;;;;;;5054586;28;20507;-72
2022/03/11 05:43:43;;;;;;;23.00;12.57;;;-7.80;73.90;;;;;;5053521;28;20044;-69
2022/03/11 05:46:09;;;;;;;28.23;13.23;;;-7.70;73.90;;;;;;5054635;28;20025;-72
2022/03/11 05:48:34;;;;;;;24.07;12.40;;;-7.70;73.70;;;;;;5054703;28;20036;-69
2022/03/11 05:51:00;;;;;;;20.00;12.07;;;-7.60;73.50;;;;;;5054044;28;20021;-69
2022/03/11 05:53:26;;;;;;;26.30;12.03;;;-7.60;73.10;;;;;;5054525;28;20066;-72
2022/03/11 05:55:51;;;;;;;24.37;13.13;;;-7.50;73.10;;;;;;5054581;28;20399;-72
2022/03/11 05:58:17;;;;;;;30.03;13.37;;;-7.40;72.80;;;;;;5054305;28;20032;-72
2022/03/11 06:00:42;;;;;;;32.53;14.23;;;-7.30;72.50;;;;;;5054198;28;20040;-72
2022/03/11 06:03:08;;;;;;;22.23;12.30;;;-7.30;72.80;;;;;;5054366;28;20036;-72
2022/03/11 06:05:34;;;;;;;23.53;11.47;;;-7.20;71.60;;;;;;5053615;28;20060;-69
2022/03/11 06:07:59;;;;;;;22.27;11.87;;;-7.10;71.70;;;;;;5053532;28;20021;-73
2022/03/11 06:10:25;;;;;;;22.17;11.50;;;-7.00;70.80;;;;;;5054293;28;20025;-69
2022/03/11 06:12:51;;;;;;;24.70;11.93;;;-6.90;70.40;;;;;;5053144;28;20044;-69
2022/03/11 06:15:16;;;;;;;21.53;12.00;;;-6.70;69.90;;;;;;5053001;28;20555;-70
2022/03/11 06:17:42;;;;;;;26.77;11.73;;;-6.60;69.10;;;;;;5053261;28;20025;-68
2022/03/11 06:20:09;;;;;;;22.47;12.70;;;-6.50;68.60;;;;;;5052606;28;20064;-70
2022/03/11 06:22:36;;;;;;;28.43;11.53;;;-6.30;67.90;;;;;;5052183;28;20060;-68
2022/03/11 06:25:05;;;;;;;31.30;12.90;;;-6.20;67.10;;;;;;5053129;28;20509;-69
2022/03/11 06:27:31;;;;;;;22.93;11.67;;;-6.00;66.90;;;;;;5052360;28;20116;-69
2022/03/11 06:29:56;;;;;;;21.43;10.90;;;-5.90;66.50;;;;;;5053319;28;20100;-70
2022/03/11 06:32:22;;;;;;;24.50;12.60;;;-5.70;65.50;;;;;;5053516;28;20017;-69
2022/03/11 06:34:48;;;;;;;23.70;11.50;;;-5.60;65.00;;;;;;5052233;28;20025;-70
2022/03/11 06:37:15;;;;;;;22.27;12.03;;;-5.40;64.40;;;;;;5053393;28;20028;-68
2022/03/11 06:39:40;;;;;;;19.27;9.50;;;-5.30;64.30;;;;;;5053219;28;20025;-69
2022/03/11 06:42:06;;;;;;;19.73;10.77;;;-5.20;63.50;;;;;;5053144;28;20574;-73
2022/03/11 06:44:31;;;;;;;15.03;8.43;;;-5.00;62.90;;;;;;5053725;28;20082;-73
2022/03/11 06:46:57;;;;;;;18.33;8.23;;;-4.90;61.90;;;;;;5053444;28;20053;-68
2022/03/11 06:49:23;;;;;;;14.30;8.50;;;-4.90;61.10;;;;;;5053380;28;20021;-73
2022/03/11 06:51:49;;;;;;;17.13;8.90;;;-4.70;61.10;;;;;;5050678;28;20079;-72
2022/03/11 06:54:14;;;;;;;16.53;8.90;;;-4.60;61.00;;;;;;5052062;28;20025;-74
2022/03/11 06:56:40;;;;;;;14.20;8.47;;;-4.50;60.60;;;;;;5053175;28;20070;-68
2022/03/11 06:59:06;;;;;;;17.73;7.90;;;-4.30;60.80;;;;;;5053200;28;20017;-69
2022/03/11 07:01:31;;;;;;;11.85;7.53;;;-4.20;59.80;;;;;;5053005;28;20486;-69
2022/03/11 07:03:57;;;;;;;15.43;7.97;;;-4.20;59.10;;;;;;5053165;28;20036;-73
2022/03/11 07:06:23;;;;;;;15.17;7.43;;;-4.20;58.10;;;;;;5053260;28;20142;-68
2022/03/11 07:08:48;;;;;;;10.68;7.65;;;-4.20;57.90;;;;;;5052141;28;20036;-70
2022/03/11 07:11:14;;;;;;;14.85;8.80;;;-4.20;57.90;;;;;;5052992;28;20175;-69
2022/03/11 07:13:40;;;;;;;13.02;7.15;;;-4.00;58.40;;;;;;5035036;28;20025;-69
2022/03/11 07:16:06;;;;;;;9.73;6.65;;;-4.00;57.80;;;;;;5031602;28;20032;-69
2022/03/11 07:18:31;;;;;;;15.07;6.63;;;-3.90;57.60;;;;;;5031887;28;20076;-70
2022/03/11 07:20:57;;;;;;;12.73;6.60;;;-3.80;57.10;;;;;;5032641;28;20073;-70
2022/03/11 07:23:23;;;;;;;12.18;6.65;;;-3.80;56.70;;;;;;5031509;28;20050;-69
2022/03/11 07:25:50;;;;;;;9.55;6.82;;;-3.70;56.60;;;;;;5031396;28;20017;-70
2022/03/11 07:28:16;;;;;;;11.40;6.60;;;-3.60;56.20;;;;;;5032576;28;20026;-69
2022/03/11 07:30:42;;;;;;;12.43;7.88;;;-3.50;56.00;;;;;;5032769;28;20495;-70
2022/03/11 07:33:09;;;;;;;13.00;7.72;;;-3.40;56.00;;;;;;5040709;28;20095;-70
2022/03/11 07:35:35;;;;;;;13.50;7.45;;;-3.40;55.70;;;;;;5052831;28;20017;-70
2022/03/11 07:38:01;;;;;;;11.80;6.30;;;-3.40;55.40;;;;;;5052486;28;20025;-70
2022/03/11 07:40:26;;;;;;;16.02;7.85;;;-3.30;55.30;;;;;;5052626;28;20095;-71
2022/03/11 07:42:52;;;;;;;12.18;7.45;;;-3.30;55.00;;;;;;5052425;28;20103;-70
2022/03/11 07:45:18;;;;;;;15.30;8.20;;;-3.20;54.70;;;;;;5052357;28;20048;-74
2022/03/11 07:47:44;;;;;;;11.93;6.93;;;-3.10;55.00;;;;;;5051786;28;20493;-74
2022/03/11 07:50:11;;;;;;;10.07;7.30;;;-3.00;54.10;;;;;;5052334;28;20035;-74
2022/03/11 07:52:38;;;;;;;13.32;7.13;;;-2.90;53.80;;;;;;5052601;28;20100;-74
2022/03/11 07:55:06;;;;;;;16.92;7.97;;;-3.00;53.10;;;;;;5051157;28;20070;-70
2022/03/11 07:57:32;;;;;;;12.75;7.00;;;-2.80;53.20;;;;;;5051309;28;20078;-69
2022/03/11 08:00:00;;;;;;;12.32;7.25;;;-2.70;53.80;;;;;;5052134;28;20021;-73
2022/03/11 08:02:27;;;;;;;9.70;6.45;;;-2.60;52.50;;;;;;5048765;28;20036;-69
2022/03/11 08:04:53;;;;;;;12.55;5.95;;;-2.50;51.60;;;;;;5051831;28;20052;-70
2022/03/11 08:07:18;;;;;;;10.98;6.82;;;-2.40;51.20;;;;;;5051614;28;20490;-69
2022/03/11 08:09:44;;;;;;;11.73;7.25;;;-2.40;50.80;;;;;;5051803;28;20025;-70
2022/03/11 08:12:10;;;;;;;14.77;7.07;;;-2.40;50.60;;;;;;5051310;28;20429;-73
2022/03/11 08:14:35;;;;;;;11.25;6.78;;;-2.20;51.00;;;;;;5049798;28;20023;-74
2022/03/11 08:17:01;;;;;;;9.55;6.32;;;-2.20;50.70;;;;;;5048324;28;20108;-74
2022/03/11 08:19:26;;;;;;;11.20;6.70;;;-2.00;50.00;;;;;;5050368;28;20090;-74
2022/03/11 08:21:52;;;;;;;9.32;5.28;;;-1.80;49.50;;;;;;5052308;28;20044;-74
2022/03/11 08:24:19;;;;;;;9.98;5.80;;;-1.90;48.80;;;;;;5052495;28;20060;-74
2022/03/11 08:26:44;;;;;;;11.55;6.82;;;-1.90;48.60;;;;;;5052139;28;20017;-74
2022/03/11 08:29:10;;;;;;;14.52;7.03;;;-1.80;49.60;;;;;;5052481;28;20036;-74
2022/03/11 08:31:36;;;;;;;14.30;7.28;;;-1.60;49.00;;;;;;5054685;28;20028;-73
2022/03/11 08:34:02;;;;;;;15.80;7.75;;;-1.60;49.20;;;;;;5054526;28;20040;-73
2022/03/11 08:36:28;;;;;;;13.23;7.80;;;-1.70;49.10;;;;;;5056144;28;20021;-69
2022/03/11 08:38:54;;;;;;;10.35;6.38;;;-1.70;48.80;;;;;;5055325;28;20027;-70
2022/03/11 08:41:20;;;;;;;13.98;6.97;;;-1.60;48.60;;;;;;5055005;28;20049;-69
2022/03/11 08:43:49;;;;;;;14.70;7.65;;;-1.70;47.50;;;;;;5055924;28;20387;-70
2022/03/11 08:46:14;;;;;;;16.50;8.20;;;-1.70;47.00;;;;;;5053887;28;20470;-74
2022/03/11 08:48:41;;;;;;;7.93;5.93;;;-1.60;47.90;;;;;;5055488;28;20057;-74
2022/03/11 08:51:07;;;;;;;17.40;7.45;;;-1.60;46.20;;;;;;5055429;28;20459;-73
2022/03/11 08:53:32;;;;;;;14.80;7.60;;;-1.50;46.00;;;;;;5055640;28;20079;-70
2022/03/11 08:55:58;;;;;;;11.50;7.05;;;-1.50;46.60;;;;;;5055448;28;20467;-70
2022/03/11 08:58:24;;;;;;;12.63;5.60;;;-1.40;45.00;;;;;;5053013;28;20037;-70
2022/03/11 09:00:49;;;;;;;8.07;5.30;;;-1.50;43.30;;;;;;5054959;28;20077;-70
2022/03/11 09:03:15;;;;;;;10.15;6.03;;;-1.50;42.70;;;;;;5055051;28;20434;-73
2022/03/11 09:05:41;;;;;;;12.10;6.05;;;-1.50;42.20;;;;;;5055294;28;20385;-71
2022/03/11 09:08:10;;;;;;;8.48;5.43;;;-1.40;43.10;;;;;;5054913;28;20033;-73
2022/03/11 09:10:36;;;;;;;7.47;4.70;;;-1.40;43.20;;;;;;5055449;28;20028;-70
2022/03/11 09:13:02;;;;;;;10.15;5.80;;;-1.20;42.70;;;;;;5055110;28;20083;-74
2022/03/11 09:15:28;;;;;;;10.95;6.47;;;-1.10;42.00;;;;;;5055171;28;20032;-74
2022/03/11 09:17:54;;;;;;;10.88;5.93;;;-1.10;42.70;;;;;;5055074;28;20025;-73
2022/03/11 09:20:19;;;;;;;10.23;6.47;;;-1.20;42.30;;;;;;5054896;28;20029;-74
2022/03/11 09:22:45;;;;;;;8.57;5.88;;;-1.00;42.60;;;;;;5054889;28;20057;-69
2022/03/11 09:25:12;;;;;;;11.95;5.55;;;-1.00;41.70;;;;;;5055121;28;20017;-73
2022/03/11 09:27:39;;;;;;;8.35;4.90;;;-0.90;41.60;;;;;;5055187;28;20028;-70
2022/03/11 09:30:06;;;;;;;7.43;4.35;;;-0.90;40.60;;;;;;5055100;28;20017;-70
2022/03/11 09:32:32;;;;;;;7.47;4.75;;;-1.10;39.50;;;;;;5055150;28;20074;-74
2022/03/11 09:34:59;;;;;;;7.43;3.85;;;-1.00;38.90;;;;;;5053641;28;20021;-70
2022/03/11 09:37:28;;;;;;;6.68;3.80;;;-0.90;38.20;;;;;;5055037;28;20025;-73
2022/03/11 09:39:54;;;;;;;6.07;3.88;;;-0.80;37.80;;;;;;5054925;28;20036;-74
2022/03/11 09:42:20;;;;;;;6.95;4.15;;;-0.80;37.80;;;;;;5054037;28;20025;-69
2022/03/11 09:44:54;;;;;;;6.13;4.07;;;-0.70;37.60;;;;;;5054917;28;20023;-70
2022/03/11 09:47:21;;;;;;;7.32;4.57;;;-0.70;36.80;;;;;;5054926;28;20434;-74
2022/03/11 09:49:47;;;;;;;7.35;4.80;;;-0.60;37.60;;;;;;5054738;28;20021;-74
2022/03/11 09:52:14;;;;;;;7.57;4.78;;;-0.70;37.90;;;;;;5054748;28;20025;-69
2022/03/11 09:54:39;;;;;;;8.68;5.13;;;-0.50;37.70;;;;;;5054701;28;20063;-70
2022/03/11 09:57:05;;;;;;;6.97;4.07;;;-0.50;37.60;;;;;;5054634;28;20021;-74
2022/03/11 09:59:30;;;;;;;9.20;5.68;;;-0.40;37.80;;;;;;5054726;28;20025;-74
2022/03/11 10:01:57;;;;;;;6.22;4.15;;;-0.30;37.80;;;;;;5053699;28;20383;-69
2022/03/11 10:04:23;;;;;;;6.53;4.55;;;-0.20;37.90;;;;;;5053377;28;20029;-73
2022/03/11 10:06:51;;;;;;;12.20;5.10;;;-0.20;37.80;;;;;;5054341;28;20383;-69
2022/03/11 10:09:20;;;;;;;13.25;5.90;;;-0.10;37.60;;;;;;5054393;28;20103;-74
2022/03/11 10:11:49;;;;;;;7.10;4.07;;;-0.10;37.60;;;;;;5054375;28;20024;-69
2022/03/11 10:14:16;;;;;;;7.55;3.90;;;0.00;37.30;;;;;;5054376;28;20055;-74
2022/03/11 10:16:44;;;;;;;5.68;4.47;;;0.10;37.20;;;;;;5054274;28;20025;-70
2022/03/11 10:19:15;;;;;;;7.07;4.28;;;0.00;36.40;;;;;;5054414;28;20074;-74
2022/03/11 10:21:44;;;;;;;10.43;4.30;;;0.00;36.10;;;;;;5053951;28;20025;-69
2022/03/11 10:24:13;;;;;;;6.13;4.25;;;0.20;36.10;;;;;;5054214;28;20513;-70
2022/03/11 10:26:41;;;;;;;6.07;4.00;;;0.00;35.50;;;;;;5052864;28;20432;-74
2022/03/11 10:29:10;;;;;;;6.53;4.25;;;0.10;36.00;;;;;;5054063;28;20194;-69
2022/03/11 10:31:40;;;;;;;7.78;4.15;;;-0.10;36.40;;;;;;5054012;28;20025;-74
2022/03/11 10:34:19;;;;;;;6.50;4.03;;;-0.10;36.10;;;;;;5052828;28;20021;-70
2022/03/11 10:36:56;;;;;;;7.43;3.95;;;-0.30;35.90;;;;;;5053739;28;20115;-70
2022/03/11 10:39:31;;;;;;;8.43;4.78;;;-0.30;36.50;;;;;;5053739;28;20482;-74
2022/03/11 10:42:18;;;;;;;8.52;5.10;;;-0.30;36.80;;;;;;5053491;28;20146;-69
2022/03/11 10:45:03;;;;;;;8.85;5.38;;;-0.30;36.30;;;;;;5033193;28;20075;-69
2022/03/11 10:47:34;;;;;;;7.93;4.63;;;-0.10;36.10;;;;;;5033440;28;20018;-70
2022/03/11 10:50:03;;;;;;;7.70;4.40;;;0.10;36.80;;;;;;5033421;28;20371;-70
2022/03/11 10:52:40;;;;;;;6.28;3.65;;;0.10;36.50;;;;;;5032968;28;20079;-69
2022/03/11 10:55:26;;;;;;;8.40;4.32;;;0.20;35.10;;;;;;5031211;28;20025;-69
2022/03/11 10:57:57;;;;;;;12.10;4.97;;;0.30;36.20;;;;;;5031662;28;20394;-70
2022/03/11 11:00:27;;;;;;;5.85;3.72;;;0.50;36.30;;;;;;5033236;28;20052;-70
2022/03/11 11:03:03;;;;;;;6.80;4.25;;;0.50;36.10;;;;;;5032989;28;20400;-69
2022/03/11 11:05:30;;;;;;;6.97;4.30;;;0.50;35.90;;;;;;5033231;28;20079;-70
2022/03/11 11:07:58;;;;;;;4.38;3.90;;;0.40;34.90;;;;;;5032926;28;20033;-69
2022/03/11 11:10:27;;;;;;;5.80;4.00;;;0.50;34.40;;;;;;5033045;28;20072;-73
2022/03/11 11:12:53;;;;;;;9.10;3.70;;;0.60;34.50;;;;;;5049564;28;20078;-74
2022/03/11 11:15:19;;;;;;;11.13;5.40;;;0.60;35.10;;;;;;5049759;28;20096;-74
2022/03/11 11:17:49;;;;;;;10.35;4.22;;;0.70;35.40;;;;;;5049418;28;20025;-70
2022/03/11 11:20:45;;;;;;;8.32;3.45;;;0.70;35.70;;;;;;5049708;28;20643;-71
2022/03/11 11:23:11;;;;;;;5.15;3.13;;;0.80;34.60;;;;;;5048936;28;20041;-74
2022/03/11 11:25:38;;;;;;;5.72;3.72;;;0.70;34.40;;;;;;5051023;28;20037;-74
2022/03/11 11:28:07;;;;;;;4.57;2.83;;;0.70;34.70;;;;;;5049755;28;20032;-74
2022/03/11 11:30:34;;;;;;;3.92;3.17;;;0.60;33.90;;;;;;5047301;28;20041;-70
2022/03/11 11:33:00;;;;;;;4.97;3.00;;;0.40;32.80;;;;;;5051971;28;20486;-71
2022/03/11 11:35:32;;;;;;;3.80;3.22;;;0.40;32.50;;;;;;5051545;28;20072;-70
2022/03/11 11:38:00;;;;;;;6.70;3.28;;;0.50;32.60;;;;;;5051851;28;20509;-70
2022/03/11 11:40:32;;;;;;;3.95;3.00;;;0.50;32.60;;;;;;5049780;28;20086;-70
2022/03/11 11:43:45;;;;;;;4.85;3.28;;;0.60;33.30;;;;;;5051163;28;20033;-71
2022/03/11 11:46:14;;;;;;;4.85;2.80;;;0.60;33.30;;;;;;5050474;28;20483;-69
2022/03/11 11:48:43;;;;;;;7.30;3.83;;;0.60;33.50;;;;;;5051547;28;20017;-70
2022/03/11 11:51:13;;;;;;;5.15;3.38;;;0.70;34.10;;;;;;5051688;28;20049;-70
2022/03/11 11:53:56;;;;;;;4.78;3.10;;;0.70;33.70;;;;;;5050953;28;20121;-70
2022/03/11 11:56:36;;;;;;;4.43;3.13;;;0.80;33.20;;;;;;5050685;28;20079;-70
2022/03/11 11:59:12;;;;;;;4.32;2.72;;;0.80;33.20;;;;;;5051653;28;20025;-70
2022/03/11 12:01:45;;;;;;;4.78;2.30;;;0.60;32.40;;;;;;5050511;28;20095;-70
2022/03/11 12:04:25;;;;;;;5.45;3.53;;;0.60;32.80;;;;;;5051859;28;20057;-70
2022/03/11 12:07:00;;;;;;;4.80;3.42;;;0.70;33.20;;;;;;5055743;28;20028;-69
2022/03/11 12:09:47;;;;;;;4.82;3.10;;;0.80;33.10;;;;;;5054106;28;20048;-70
2022/03/11 12:12:22;;;;;;;9.43;4.28;;;0.90;33.20;;;;;;5054856;28;20062;-70
2022/03/11 12:15:08;;;;;;;6.22;2.85;;;0.70;32.90;;;;;;5055356;28;20145;-70
2022/03/11 12:17:42;;;;;;;7.18;3.50;;;0.70;32.80;;;;;;5055242;28;20100;-70
2022/03/11 12:20:29;;;;;;;4.50;3.65;;;0.80;33.90;;;;;;5054985;28;20033;-71
2022/03/11 12:23:14;;;;;;;5.18;3.80;;;0.80;33.60;;;;;;5054284;28;20045;-70
2022/03/11 12:25:41;;;;;;;12.43;4.05;;;0.90;34.00;;;;;;5054262;28;20049;-70
2022/03/11 12:28:25;;;;;;;7.78;4.18;;;0.80;34.20;;;;;;5055167;28;20537;-70
2022/03/11 12:30:50;;;;;;;5.13;3.10;;;0.80;34.10;;;;;;5053628;28;20395;-74
2022/03/11 12:33:32;;;;;;;6.25;4.20;;;0.90;33.90;;;;;;5053257;28;20017;-74
2022/03/11 12:35:58;;;;;;;8.25;3.10;;;0.90;33.80;;;;;;5054941;28;20502;-74
2022/03/11 12:38:27;;;;;;;5.35;4.20;;;0.80;33.30;;;;;;5054057;28;20109;-74